createdAt,value
2024-01-09T00:01:33.082Z,90.79
2024-01-09T00:04:01.090Z,91.14
2024-01-09T00:06:29.226Z,91.10
2024-01-09T00:09:00.049Z,92.02
2024-01-09T00:11:28.405Z,91.83
2024-01-09T00:13:59.248Z,90.94
2024-01-09T00:16:27.319Z,90.98
2024-01-09T00:18:55.937Z,91.78
2024-01-09T00:21:24.896Z,91.42
2024-01-09T00:23:52.945Z,90.80
2024-01-09T00:26:22.912Z,91.58
2024-01-09T00:28:51.101Z,91.71
2024-01-09T00:31:19.235Z,91.88
2024-01-09T00:33:47.450Z,91.83
2024-01-09T00:36:15.529Z,90.91
2024-01-09T00:38:43.701Z,91.68
2024-01-09T00:41:11.802Z,91.62
2024-01-09T00:43:39.842Z,91.26
2024-01-09T00:46:07.921Z,90.99
2024-01-09T00:48:36.493Z,90.65
2024-01-09T00:51:04.886Z,90.08
2024-01-09T00:53:32.964Z,89.46
2024-01-09T00:56:00.977Z,89.80
2024-01-09T00:58:29.902Z,88.93
2024-01-09T01:00:57.899Z,90.54
2024-01-09T01:03:26.121Z,89.94
2024-01-09T01:05:54.091Z,88.03
2024-01-09T01:08:22.790Z,89.53
2024-01-09T01:10:50.781Z,88.48
2024-01-09T01:13:18.709Z,88.71
2024-01-09T01:15:46.823Z,88.97
2024-01-09T01:18:15.188Z,89.76
2024-01-09T01:20:43.473Z,89.59
2024-01-09T01:23:11.499Z,89.13
2024-01-09T01:25:39.796Z,89.68
2024-01-09T01:28:07.947Z,90.07
2024-01-09T01:30:36.070Z,89.24
2024-01-09T01:33:04.901Z,88.84
2024-01-09T01:35:33.181Z,88.75
2024-01-09T01:38:01.230Z,89.60
2024-01-09T01:40:29.379Z,90.02
2024-01-09T01:42:58.648Z,89.68
2024-01-09T01:45:26.917Z,89.05
2024-01-09T01:47:55.441Z,89.99
2024-01-09T01:50:24.281Z,89.29
2024-01-09T01:52:53.105Z,89.52
2024-01-09T01:55:26.620Z,90.25
2024-01-09T01:57:58.198Z,90.74
2024-01-09T02:00:27.769Z,90.16
2024-01-09T02:02:56.289Z,90.62
2024-01-09T02:05:27.353Z,91.03
2024-01-09T02:07:57.693Z,91.39
2024-01-09T02:10:25.832Z,90.98
2024-01-09T02:12:54.252Z,91.12
2024-01-09T02:15:22.300Z,90.11
2024-01-09T02:17:50.722Z,89.12
2024-01-09T02:20:23.696Z,88.67
2024-01-09T02:22:51.853Z,89.23
2024-01-09T02:25:20.263Z,88.51
2024-01-09T02:28:07.612Z,89.71
2024-01-09T02:30:37.406Z,89.81
2024-01-09T02:33:07.808Z,89.43
2024-01-09T02:35:36.121Z,90.29
2024-01-09T02:38:04.387Z,90.12
2024-01-09T02:40:32.751Z,90.01
2024-01-09T02:43:00.756Z,90.04
2024-01-09T02:45:28.781Z,90.17
2024-01-09T02:47:57.335Z,90.81
2024-01-09T02:50:25.488Z,89.92
2024-01-09T02:52:54.912Z,90.05
2024-01-09T02:55:22.894Z,90.15
2024-01-09T02:57:51.820Z,89.95
2024-01-09T03:02:59.180Z,91.04
2024-01-09T03:05:27.685Z,91.48
2024-01-09T03:07:55.935Z,91.39
2024-01-09T03:10:26.027Z,90.35
2024-01-09T03:12:53.972Z,90.41
2024-01-09T03:15:22.131Z,90.87
2024-01-09T03:17:50.292Z,90.54
2024-01-09T03:20:18.576Z,90.22
2024-01-09T03:22:46.568Z,90.40
2024-01-09T03:25:14.564Z,90.40
2024-01-09T03:27:42.589Z,89.26
2024-01-09T03:30:11.280Z,89.84
2024-01-09T03:32:39.271Z,88.77
2024-01-09T03:35:07.925Z,88.41
2024-01-09T03:37:35.888Z,88.54
2024-01-09T03:40:03.874Z,89.01
2024-01-09T03:42:31.925Z,89.22
2024-01-09T03:44:59.941Z,88.55
2024-01-09T03:47:28.043Z,88.30
2024-01-09T03:49:56.119Z,88.88
2024-01-09T03:52:24.527Z,88.55
2024-01-09T03:54:52.690Z,88.94
2024-01-09T03:57:20.638Z,88.93
2024-01-09T03:59:48.782Z,89.25
2024-01-09T04:02:17.341Z,89.18
2024-01-09T04:04:45.419Z,88.93
2024-01-09T04:07:13.474Z,88.81
2024-01-09T04:09:41.527Z,88.42
2024-01-09T04:12:09.610Z,89.18
2024-01-09T04:14:37.986Z,88.90
2024-01-09T04:17:06.157Z,87.52
2024-01-09T04:19:38.312Z,88.89
2024-01-09T04:22:09.579Z,87.78
2024-01-09T04:24:37.725Z,86.30
2024-01-09T04:27:05.921Z,86.54
2024-01-09T04:29:34.127Z,86.12
2024-01-09T04:32:02.148Z,86.27
2024-01-09T04:34:30.323Z,85.95
2024-01-09T04:36:58.593Z,86.16
2024-01-09T04:39:26.712Z,86.97
2024-01-09T04:41:55.026Z,87.10
2024-01-09T04:44:23.522Z,86.84
2024-01-09T04:46:51.804Z,86.76
2024-01-09T04:49:19.956Z,86.30
2024-01-09T04:51:48.050Z,86.22
2024-01-09T04:54:16.194Z,86.33
2024-01-09T04:56:44.603Z,86.48
2024-01-09T04:59:12.630Z,86.06
2024-01-09T05:01:40.638Z,86.52
2024-01-09T05:04:10.327Z,86.71
2024-01-09T05:06:38.834Z,85.90
2024-01-09T05:09:06.770Z,86.16
2024-01-09T05:11:34.930Z,84.27
2024-01-09T05:14:03.031Z,84.21
2024-01-09T05:16:31.173Z,84.63
2024-01-09T05:18:59.243Z,85.45
2024-01-09T05:21:27.574Z,84.74
2024-01-09T05:23:55.682Z,84.89
2024-01-09T05:26:24.062Z,85.46
2024-01-09T05:28:52.040Z,85.10
2024-01-09T05:31:20.329Z,85.49
2024-01-09T05:33:49.179Z,84.55
2024-01-09T05:36:24.033Z,84.17
2024-01-09T05:38:52.965Z,84.32
2024-01-09T05:41:22.618Z,84.69
2024-01-09T05:43:51.371Z,84.03
2024-01-09T05:46:19.384Z,83.28
2024-01-09T05:48:48.325Z,83.08
2024-01-09T05:51:16.659Z,82.32
2024-01-09T05:53:47.659Z,82.90
2024-01-09T05:56:16.056Z,82.86
2024-01-09T05:58:44.264Z,82.77
2024-01-09T06:01:12.725Z,83.37
2024-01-09T06:03:40.863Z,83.16
2024-01-09T06:06:09.089Z,81.12
2024-01-09T06:08:37.137Z,81.78
2024-01-09T06:11:05.677Z,82.87
2024-01-09T06:13:33.681Z,82.89
2024-01-09T06:16:01.782Z,83.10
2024-01-09T06:18:29.890Z,81.32
2024-01-09T06:20:58.078Z,79.30
2024-01-09T06:23:26.181Z,80.11
2024-01-09T06:25:54.154Z,80.04
2024-01-09T06:28:22.271Z,80.82
2024-01-09T06:30:50.436Z,81.45
2024-01-09T06:33:18.597Z,81.07
2024-01-09T06:35:46.702Z,81.81
2024-01-09T06:38:15.542Z,80.77
2024-01-09T06:40:43.581Z,80.31
2024-01-09T06:43:11.727Z,79.92
2024-01-09T06:45:39.638Z,80.41
2024-01-09T06:48:08.033Z,78.69
2024-01-09T06:50:38.293Z,81.22
2024-01-09T06:53:06.619Z,81.36
2024-01-09T06:55:34.854Z,82.68
2024-01-09T06:58:05.760Z,82.13
2024-01-09T07:00:35.750Z,83.10
2024-01-09T07:03:04.214Z,82.97
2024-01-09T07:05:32.317Z,81.42
2024-01-09T07:08:00.438Z,81.63
2024-01-09T07:10:28.867Z,82.85
2024-01-09T07:12:58.034Z,82.00
2024-01-09T07:15:26.234Z,82.21
2024-01-09T07:17:54.552Z,80.65
2024-01-09T07:20:22.610Z,82.52
2024-01-09T07:22:58.670Z,81.29
2024-01-09T07:25:30.885Z,80.90
2024-01-09T07:27:58.771Z,79.93
2024-01-09T07:30:27.147Z,79.93
2024-01-09T07:32:55.519Z,80.25
2024-01-09T07:35:23.957Z,80.58
2024-01-09T07:37:51.939Z,80.25
2024-01-09T07:40:20.400Z,80.13
2024-01-09T07:42:56.919Z,80.84
2024-01-09T07:45:32.065Z,80.35
2024-01-09T07:48:01.486Z,81.03
2024-01-09T07:50:29.771Z,81.43
2024-01-09T07:52:57.982Z,81.97
2024-01-09T07:55:26.772Z,81.67
2024-01-09T07:57:54.916Z,81.88
2024-01-09T08:00:23.074Z,81.32
2024-01-09T08:02:51.123Z,80.06
2024-01-09T08:05:19.577Z,81.09
2024-01-09T08:07:47.662Z,82.11
2024-01-09T08:10:16.322Z,82.06
2024-01-09T08:12:44.662Z,81.78
2024-01-09T08:15:13.024Z,81.17
2024-01-09T08:17:41.637Z,81.75
2024-01-09T08:20:10.549Z,82.42
2024-01-09T08:22:39.061Z,83.05
2024-01-09T08:25:07.899Z,83.01
2024-01-09T08:27:36.291Z,83.77
2024-01-09T08:30:05.596Z,82.87
2024-01-09T08:32:33.769Z,82.21
2024-01-09T08:35:03.107Z,82.91
2024-01-09T08:37:31.214Z,82.30
2024-01-09T08:39:59.699Z,82.61
2024-01-09T08:42:27.666Z,82.00
2024-01-09T08:44:55.942Z,82.68
2024-01-09T08:47:24.068Z,82.15
2024-01-09T08:49:52.908Z,82.33
2024-01-09T08:52:26.436Z,81.60
2024-01-09T08:54:55.338Z,81.43
2024-01-09T08:57:23.842Z,81.92
2024-01-09T08:59:51.937Z,81.26
2024-01-09T09:02:20.076Z,82.30
2024-01-09T09:04:48.300Z,81.92
2024-01-09T09:07:17.182Z,82.21
2024-01-09T09:09:45.726Z,82.63
2024-01-09T09:12:15.357Z,82.19
2024-01-09T09:14:43.398Z,80.57
2024-01-09T09:17:13.879Z,80.83
2024-01-09T09:19:42.118Z,80.92
2024-01-09T09:22:10.262Z,80.58
2024-01-09T09:24:38.469Z,80.55
2024-01-09T09:27:06.534Z,79.43
2024-01-09T09:29:38.131Z,80.14
2024-01-09T09:32:07.780Z,80.89
2024-01-09T09:34:36.294Z,81.39
2024-01-09T09:37:04.797Z,80.44
2024-01-09T09:39:32.883Z,81.18
2024-01-09T09:42:01.268Z,80.51
2024-01-09T09:44:29.803Z,80.80
2024-01-09T09:47:00.460Z,80.54
2024-01-09T09:49:29.794Z,80.18
2024-01-09T09:51:59.616Z,79.26
2024-01-09T09:54:27.680Z,79.96
2024-01-09T09:56:55.787Z,79.83
2024-01-09T09:59:23.974Z,78.59
2024-01-09T10:01:53.505Z,77.91
2024-01-09T10:04:36.857Z,79.48
2024-01-09T10:07:07.842Z,78.50
2024-01-09T10:09:39.343Z,78.81
2024-01-09T10:12:07.958Z,78.61
2024-01-09T10:14:36.020Z,79.84
2024-01-09T10:17:06.867Z,77.62
2024-01-09T10:19:35.123Z,77.52
2024-01-09T10:22:03.949Z,75.96
2024-01-09T10:24:38.347Z,77.50
2024-01-09T10:27:09.722Z,78.43
2024-01-09T10:29:44.071Z,78.91
2024-01-09T10:32:15.638Z,79.20
2024-01-09T10:34:45.280Z,79.17
2024-01-09T10:37:15.249Z,80.38
2024-01-09T10:39:48.057Z,79.78
2024-01-09T10:42:16.384Z,79.48
2024-01-09T10:44:47.908Z,79.73
2024-01-09T10:47:17.738Z,80.04
2024-01-09T10:49:46.968Z,79.47
2024-01-09T10:52:16.962Z,80.17
2024-01-09T10:54:46.322Z,81.97
2024-01-09T10:57:15.316Z,80.26
2024-01-09T10:59:45.806Z,81.69
2024-01-09T11:02:17.321Z,80.38
2024-01-09T11:04:46.217Z,77.93
2024-01-09T11:07:18.116Z,77.80
2024-01-09T11:09:48.755Z,77.74
2024-01-09T11:12:24.639Z,78.26
2024-01-09T11:15:12.984Z,80.24
2024-01-09T11:17:43.403Z,80.09
2024-01-09T11:20:15.839Z,80.19
2024-01-09T11:22:44.182Z,81.15
2024-01-09T11:25:18.650Z,78.12
2024-01-09T11:27:51.590Z,77.39
2024-01-09T11:30:24.395Z,76.69
2024-01-09T11:32:53.357Z,76.42
2024-01-09T11:35:24.876Z,76.99
2024-01-09T11:37:53.473Z,76.27
2024-01-09T11:40:25.926Z,75.50
2024-01-09T11:42:54.408Z,75.93
2024-01-09T11:45:24.334Z,75.95
2024-01-09T11:47:55.314Z,76.29
2024-01-09T11:50:23.920Z,74.99
2024-01-09T11:52:52.309Z,74.38
2024-01-09T11:55:20.417Z,75.70
2024-01-09T11:57:48.575Z,76.07
2024-01-09T12:00:17.204Z,75.10
2024-01-09T12:02:45.644Z,76.13
2024-01-09T12:05:13.830Z,74.76
2024-01-09T12:07:42.016Z,75.58
2024-01-09T12:10:21.604Z,75.26
2024-01-09T12:13:06.416Z,75.93
2024-01-09T12:15:34.692Z,76.24
2024-01-09T12:18:04.061Z,77.42
2024-01-09T12:20:33.489Z,77.45
2024-01-09T12:23:02.898Z,76.28
2024-01-09T12:25:31.746Z,73.47
2024-01-09T12:28:01.306Z,71.87
2024-01-09T12:30:29.948Z,73.48
2024-01-09T12:32:58.938Z,73.13
2024-01-09T12:35:27.173Z,75.07
2024-01-09T12:37:55.474Z,74.89
2024-01-09T12:40:23.646Z,73.83
2024-01-09T12:43:12.613Z,71.65
2024-01-09T12:45:41.493Z,70.45
2024-01-09T12:48:11.076Z,72.50
2024-01-09T12:50:39.615Z,70.31
2024-01-09T12:53:09.227Z,70.37
2024-01-09T12:55:37.543Z,71.12
2024-01-09T12:58:05.610Z,72.80
2024-01-09T13:00:33.949Z,71.77
2024-01-09T13:03:02.157Z,71.88
2024-01-09T13:05:30.418Z,72.65
2024-01-09T13:07:58.677Z,70.94
2024-01-09T13:10:27.031Z,70.95
2024-01-09T13:12:55.109Z,71.59
2024-01-09T13:15:23.319Z,72.69
2024-01-09T13:17:51.431Z,73.43
2024-01-09T13:20:19.612Z,72.06
2024-01-09T13:25:18.790Z,73.48
2024-01-09T13:27:47.247Z,73.98
2024-01-09T13:32:46.489Z,73.28
2024-01-09T13:35:14.644Z,73.20
2024-01-09T13:37:45.333Z,73.63
2024-01-09T13:40:13.624Z,73.21
2024-01-09T13:42:42.447Z,73.10
2024-01-09T13:45:11.099Z,74.17
2024-01-09T13:47:42.910Z,73.99
2024-01-09T13:51:47.134Z,74.90
2024-01-09T13:53:00.706Z,74.15
2024-01-09T13:55:29.172Z,73.01
2024-01-09T13:57:57.199Z,72.61
2024-01-09T14:00:25.469Z,70.13
2024-01-09T14:02:55.190Z,70.54
2024-01-09T14:05:25.545Z,71.04
2024-01-09T14:07:53.685Z,70.33
2024-01-09T14:10:23.536Z,69.07
2024-01-09T14:12:52.583Z,72.41
2024-01-09T14:15:20.722Z,70.58
2024-01-09T14:17:49.377Z,71.52
2024-01-09T14:20:18.240Z,69.65
2024-01-09T14:22:47.010Z,68.23
2024-01-09T14:25:15.515Z,68.88
2024-01-09T14:27:43.656Z,70.52
2024-01-09T14:30:12.309Z,69.91
2024-01-09T14:32:41.577Z,70.46
2024-01-09T14:35:10.402Z,68.38
2024-01-09T14:37:40.432Z,67.88
2024-01-09T14:40:13.230Z,68.88
2024-01-09T14:42:41.493Z,67.84
2024-01-09T14:45:12.020Z,69.19
2024-01-09T14:47:40.854Z,69.19
2024-01-09T14:50:09.538Z,67.47
2024-01-09T14:52:37.705Z,67.12
2024-01-09T14:55:06.945Z,66.52
2024-01-09T14:57:35.200Z,66.64
2024-01-09T15:00:06.157Z,66.95
2024-01-09T15:02:34.548Z,66.72
2024-01-09T15:05:03.323Z,67.31
2024-01-09T15:07:31.677Z,67.56
2024-01-09T15:09:59.800Z,68.94
2024-01-09T15:12:31.238Z,67.21
2024-01-09T15:14:59.780Z,69.34
2024-01-09T15:17:30.834Z,68.36
2024-01-09T15:19:59.420Z,67.67
2024-01-09T15:22:27.732Z,68.91
2024-01-09T15:24:56.444Z,69.57
2024-01-09T15:27:25.826Z,70.33
2024-01-09T15:29:55.516Z,67.63
2024-01-09T15:32:24.297Z,66.55
2024-01-09T15:34:54.014Z,70.11
2024-01-09T15:37:23.618Z,70.58
2024-01-09T15:39:51.718Z,69.18
2024-01-09T15:42:20.959Z,67.32
2024-01-09T15:44:50.456Z,66.35
2024-01-09T15:47:18.952Z,68.77
2024-01-09T15:49:48.281Z,68.30
2024-01-09T15:52:17.508Z,67.40
2024-01-09T15:54:46.072Z,66.65
2024-01-09T15:57:15.032Z,66.38
2024-01-09T15:59:44.369Z,67.23
2024-01-09T16:02:13.173Z,70.16
2024-01-09T16:04:43.858Z,67.92
2024-01-09T16:07:13.481Z,67.77
2024-01-09T16:09:43.284Z,69.52
2024-01-09T16:12:11.262Z,66.84
2024-01-09T16:14:40.797Z,66.81
2024-01-09T16:17:09.788Z,67.53
2024-01-09T16:19:38.598Z,68.04
2024-01-09T16:22:08.955Z,67.73
2024-01-09T16:24:38.452Z,67.78
2024-01-09T16:27:07.584Z,67.43
2024-01-09T16:29:36.292Z,65.95
2024-01-09T16:32:05.917Z,66.17
2024-01-09T16:34:35.100Z,68.09
2024-01-09T16:37:03.966Z,67.58
2024-01-09T16:39:32.892Z,66.48
2024-01-09T16:42:01.786Z,66.74
2024-01-09T16:44:30.434Z,66.65
2024-01-09T16:47:00.344Z,66.66
2024-01-09T16:49:29.729Z,66.58
2024-01-09T16:51:58.578Z,66.44
2024-01-09T16:54:27.186Z,68.94
2024-01-09T16:56:55.817Z,67.77
2024-01-09T16:59:25.494Z,67.92
2024-01-09T17:01:55.114Z,66.44
2024-01-09T17:04:24.030Z,67.79
2024-01-09T17:06:53.484Z,66.45
2024-01-09T17:09:22.323Z,65.51
2024-01-09T17:11:51.126Z,66.28
2024-01-09T17:14:19.901Z,66.45
2024-01-09T17:16:51.419Z,68.33
2024-01-09T17:19:25.712Z,67.31
2024-01-09T17:21:54.149Z,66.44
2024-01-09T17:24:23.113Z,65.71
2024-01-09T17:26:51.684Z,67.24
2024-01-09T17:29:21.248Z,65.93
2024-01-09T17:31:50.004Z,67.83
2024-01-09T17:34:19.158Z,68.03
2024-01-09T17:36:49.339Z,69.41
2024-01-09T17:39:19.719Z,67.26
2024-01-09T17:41:48.605Z,66.56
2024-01-09T17:44:17.295Z,65.37
2024-01-09T17:46:45.959Z,66.45
2024-01-09T17:49:15.480Z,68.43
2024-01-09T17:51:43.999Z,68.47
2024-01-09T17:54:12.987Z,67.55
2024-01-09T17:56:41.848Z,68.13
2024-01-09T17:59:10.900Z,68.77
2024-01-09T18:01:46.364Z,65.94
2024-01-09T18:04:21.149Z,65.32
2024-01-09T18:06:50.762Z,66.07
2024-01-09T18:09:27.437Z,67.45
2024-01-09T18:11:56.814Z,65.85
2024-01-09T18:14:25.515Z,64.18
2024-01-09T18:16:54.161Z,65.26
2024-01-09T18:19:22.715Z,66.97
2024-01-09T18:21:51.643Z,64.75
2024-01-09T18:24:20.463Z,63.97
2024-01-09T18:26:54.020Z,65.38
2024-01-09T18:29:24.837Z,67.47
2024-01-09T18:31:56.542Z,65.56
2024-01-09T18:34:25.464Z,65.40
2024-01-09T18:36:54.106Z,64.69
2024-01-09T18:39:23.470Z,66.78
2024-01-09T18:41:59.414Z,65.82
2024-01-09T18:44:30.059Z,67.52
2024-01-09T18:46:59.036Z,68.55
2024-01-09T18:49:28.082Z,66.49
2024-01-09T18:51:57.166Z,66.03
2024-01-09T18:54:26.288Z,66.91
2024-01-09T18:56:54.965Z,67.17
2024-01-09T18:59:23.782Z,67.33
2024-01-09T19:01:53.042Z,67.53
2024-01-09T19:04:21.926Z,67.73
2024-01-09T19:06:50.747Z,67.92
2024-01-09T19:09:19.346Z,67.62
2024-01-09T19:11:47.988Z,69.52
2024-01-09T19:14:19.482Z,67.56
2024-01-09T19:16:48.613Z,68.13
2024-01-09T19:19:18.243Z,69.97
2024-01-09T19:21:47.481Z,69.22
2024-01-09T19:24:18.526Z,72.33
2024-01-09T19:26:48.301Z,70.22
2024-01-09T19:29:20.743Z,67.22
2024-01-09T19:31:51.403Z,68.66
2024-01-09T19:34:21.446Z,68.87
2024-01-09T19:36:50.283Z,70.07
2024-01-09T19:39:19.088Z,68.53
2024-01-09T19:41:47.699Z,69.46
2024-01-09T19:44:17.753Z,69.04
2024-01-09T19:46:46.543Z,68.60
2024-01-09T19:49:15.713Z,68.56
2024-01-09T19:51:44.800Z,66.96
2024-01-09T19:54:13.854Z,66.46
2024-01-09T19:56:42.777Z,67.49
2024-01-09T19:59:12.196Z,67.91
2024-01-09T20:01:45.268Z,68.39
2024-01-09T20:04:14.141Z,68.76
2024-01-09T20:06:43.457Z,67.81
2024-01-09T20:09:12.775Z,68.07
2024-01-09T20:11:41.627Z,67.83
2024-01-09T20:14:10.405Z,68.19
2024-01-09T20:16:39.554Z,67.76
2024-01-09T20:19:08.293Z,65.23
2024-01-09T20:21:41.339Z,65.83
2024-01-09T20:24:10.168Z,67.42
2024-01-09T20:26:39.903Z,67.33
2024-01-09T20:29:12.418Z,67.06
2024-01-09T20:31:46.189Z,65.92
2024-01-09T20:34:15.752Z,66.68
2024-01-09T20:36:44.852Z,66.64
2024-01-09T20:39:19.483Z,67.47
2024-01-09T20:41:48.232Z,66.59
2024-01-09T20:44:21.644Z,67.31
2024-01-09T20:46:50.352Z,68.88
2024-01-09T20:49:18.882Z,67.05
2024-01-09T20:51:47.541Z,66.95
2024-01-09T20:54:16.145Z,66.83
2024-01-09T20:56:44.705Z,67.47
2024-01-09T20:59:13.439Z,69.63
2024-01-09T21:01:42.563Z,69.70
2024-01-09T21:04:13.942Z,69.03
2024-01-09T21:06:47.543Z,68.89
2024-01-09T21:09:16.198Z,69.59
2024-01-09T21:11:44.568Z,69.53
2024-01-09T21:14:13.209Z,70.14
2024-01-09T21:16:41.886Z,71.37
2024-01-09T21:19:10.432Z,68.18
2024-01-09T21:21:38.997Z,67.54
2024-01-09T21:24:07.997Z,68.11
2024-01-09T21:26:36.628Z,68.78
2024-01-09T21:29:05.356Z,67.64
2024-01-09T21:31:34.110Z,67.93
2024-01-09T21:34:03.093Z,67.12
2024-01-09T21:36:31.714Z,68.95
2024-01-09T21:39:00.483Z,68.75
2024-01-09T21:41:29.053Z,65.70
2024-01-09T21:43:57.544Z,66.42
2024-01-09T21:46:27.732Z,67.06
2024-01-09T21:48:56.587Z,67.83
2024-01-09T21:51:27.223Z,65.70
2024-01-09T21:53:58.470Z,66.23
2024-01-09T21:56:26.902Z,69.48
2024-01-09T21:58:55.138Z,66.87
2024-01-09T22:01:23.849Z,68.86
2024-01-09T22:03:52.487Z,68.78
2024-01-09T22:06:21.402Z,69.41
2024-01-09T22:08:50.104Z,67.19
2024-01-09T22:11:18.863Z,68.05
2024-01-09T22:13:48.647Z,68.34
2024-01-09T22:16:20.771Z,68.57
2024-01-09T22:18:49.713Z,69.68
2024-01-09T22:21:18.670Z,69.93
2024-01-09T22:23:46.964Z,69.10
2024-01-09T22:26:22.396Z,68.70
2024-01-09T22:28:50.800Z,68.19
2024-01-09T22:31:19.981Z,68.16
2024-01-09T22:33:48.645Z,69.73
2024-01-09T22:36:16.874Z,70.78
2024-01-09T22:38:44.902Z,71.39
2024-01-09T22:41:12.979Z,70.10
2024-01-09T22:43:41.103Z,70.36
2024-01-09T22:46:09.200Z,71.10
2024-01-09T22:48:37.225Z,68.94
2024-01-09T22:51:06.571Z,67.89
2024-01-09T22:53:34.593Z,68.18
2024-01-09T22:56:02.862Z,69.30
2024-01-09T22:58:31.021Z,69.81
2024-01-09T23:00:59.766Z,69.71
2024-01-09T23:03:28.318Z,68.39
2024-01-09T23:05:59.048Z,69.24
2024-01-09T23:08:27.275Z,67.00
2024-01-09T23:10:55.328Z,67.94
2024-01-09T23:13:23.624Z,65.79
2024-01-09T23:15:51.663Z,66.06
2024-01-09T23:18:19.647Z,67.47
2024-01-09T23:20:47.743Z,67.10
2024-01-09T23:23:15.987Z,67.40
2024-01-09T23:25:44.049Z,68.01
2024-01-09T23:28:12.167Z,67.69
2024-01-09T23:30:40.146Z,68.29
2024-01-09T23:33:08.473Z,68.59
2024-01-09T23:35:36.612Z,68.25
2024-01-09T23:38:05.692Z,68.26
2024-01-09T23:40:35.101Z,68.87
2024-01-09T23:43:03.398Z,69.24
2024-01-09T23:45:31.509Z,68.78
2024-01-09T23:47:59.584Z,68.52
2024-01-09T23:50:27.789Z,68.25
2024-01-09T23:52:56.132Z,68.84
2024-01-09T23:55:24.256Z,68.49
2024-01-09T23:57:52.765Z,69.16
